sensor_id;sensor_type;location;lat;lon;timestamp;pressure;altitude;pressure_sealevel;temperature;humidity
48364;BME280;34170;54.364;18.582;2022-10-26T00:01:15;100219.69;;;10.91;100.00
48364;BME280;34170;54.364;18.582;2022-10-26T00:03:43;100223.84;;;11.03;100.00
48364;BME280;34170;54.364;18.582;2022-10-26T00:06:15;100225.69;;;11.31;100.00
48364;BME280;34170;54.364;18.582;2022-10-26T00:08:43;100222.97;;;11.13;100.00
48364;BME280;34170;54.364;18.582;2022-10-26T00:11:11;100229.84;;;11.25;100.00
48364;BME280;34170;54.364;18.582;2022-10-26T00:13:40;100224.78;;;11.40;100.00
48364;BME280;34170;54.364;18.582;2022-10-26T00:16:23;100230.06;;;11.50;100.00
48364;BME280;34170;54.364;18.582;2022-10-26T00:18:51;100231.69;;;11.42;100.00
48364;BME280;34170;54.364;18.582;2022-10-26T00:21:18;100235.94;;;11.63;100.00
48364;BME280;34170;54.364;18.582;2022-10-26T00:23:46;100236.50;;;11.67;100.00
48364;BME280;34170;54.364;18.582;2022-10-26T00:26:13;100231.50;;;11.72;100.00
48364;BME280;34170;54.364;18.582;2022-10-26T00:28:40;100228.66;;;11.73;100.00
48364;BME280;34170;54.364;18.582;2022-10-26T00:31:12;100235.66;;;11.66;100.00
48364;BME280;34170;54.364;18.582;2022-10-26T00:33:40;100241.94;;;11.75;100.00
48364;BME280;34170;54.364;18.582;2022-10-26T00:36:08;100242.81;;;11.57;100.00
48364;BME280;34170;54.364;18.582;2022-10-26T00:38:36;100236.41;;;11.58;100.00
48364;BME280;34170;54.364;18.582;2022-10-26T00:41:04;100233.31;;;11.53;100.00
48364;BME280;34170;54.364;18.582;2022-10-26T00:43:37;100240.56;;;11.53;100.00
48364;BME280;34170;54.364;18.582;2022-10-26T00:46:28;100235.69;;;11.38;100.00
48364;BME280;34170;54.364;18.582;2022-10-26T00:49:03;100238.66;;;11.63;100.00
48364;BME280;34170;54.364;18.582;2022-10-26T00:51:53;100237.41;;;11.57;100.00
48364;BME280;34170;54.364;18.582;2022-10-26T00:54:20;100240.78;;;11.59;100.00
48364;BME280;34170;54.364;18.582;2022-10-26T00:56:49;100238.78;;;11.61;100.00
48364;BME280;34170;54.364;18.582;2022-10-26T00:59:18;100247.50;;;11.73;100.00
48364;BME280;34170;54.364;18.582;2022-10-26T01:01:47;100255.66;;;11.81;100.00
48364;BME280;34170;54.364;18.582;2022-10-26T01:04:15;100238.94;;;11.78;100.00
48364;BME280;34170;54.364;18.582;2022-10-26T01:06:44;100240.94;;;11.58;100.00
48364;BME280;34170;54.364;18.582;2022-10-26T01:09:12;100252.94;;;11.63;100.00
48364;BME280;34170;54.364;18.582;2022-10-26T01:11:40;100248.19;;;11.75;100.00
48364;BME280;34170;54.364;18.582;2022-10-26T01:14:09;100247.25;;;11.67;100.00
48364;BME280;34170;54.364;18.582;2022-10-26T01:22:33;100243.75;;;11.38;100.00
48364;BME280;34170;54.364;18.582;2022-10-26T01:28:00;100246.16;;;11.41;100.00
48364;BME280;34170;54.364;18.582;2022-10-26T01:30:38;100242.94;;;11.38;100.00
48364;BME280;34170;54.364;18.582;2022-10-26T01:33:36;100243.63;;;11.40;100.00
48364;BME280;34170;54.364;18.582;2022-10-26T01:36:28;100247.16;;;11.58;100.00
48364;BME280;34170;54.364;18.582;2022-10-26T01:39:43;100244.41;;;11.50;100.00
48364;BME280;34170;54.364;18.582;2022-10-26T01:42:14;100237.59;;;11.46;100.00
48364;BME280;34170;54.364;18.582;2022-10-26T01:44:47;100245.16;;;11.42;100.00
48364;BME280;34170;54.364;18.582;2022-10-26T01:47:19;100237.03;;;11.52;100.00
48364;BME280;34170;54.364;18.582;2022-10-26T01:49:51;100238.16;;;11.50;100.00
48364;BME280;34170;54.364;18.582;2022-10-26T01:52:20;100231.88;;;11.59;100.00
48364;BME280;34170;54.364;18.582;2022-10-26T01:54:47;100236.00;;;11.53;100.00
48364;BME280;34170;54.364;18.582;2022-10-26T01:57:17;100239.59;;;11.26;100.00
48364;BME280;34170;54.364;18.582;2022-10-26T02:00:02;100236.09;;;11.43;100.00
48364;BME280;34170;54.364;18.582;2022-10-26T02:08:52;100240.59;;;11.25;100.00
48364;BME280;34170;54.364;18.582;2022-10-26T02:11:40;100243.34;;;11.15;100.00
48364;BME280;34170;54.364;18.582;2022-10-26T02:16:56;100247.13;;;11.22;100.00
48364;BME280;34170;54.364;18.582;2022-10-26T02:19:55;100253.56;;;11.12;100.00
48364;BME280;34170;54.364;18.582;2022-10-26T02:22:35;100248.88;;;11.14;100.00
48364;BME280;34170;54.364;18.582;2022-10-26T02:25:08;100255.03;;;11.24;100.00
48364;BME280;34170;54.364;18.582;2022-10-26T02:27:42;100250.03;;;11.11;100.00
48364;BME280;34170;54.364;18.582;2022-10-26T02:30:12;100248.72;;;11.15;100.00
48364;BME280;34170;54.364;18.582;2022-10-26T02:32:44;100246.44;;;11.20;100.00
48364;BME280;34170;54.364;18.582;2022-10-26T02:35:16;100255.81;;;11.16;100.00
48364;BME280;34170;54.364;18.582;2022-10-26T02:37:47;100244.06;;;10.80;100.00
48364;BME280;34170;54.364;18.582;2022-10-26T02:40:19;100244.88;;;10.90;100.00
48364;BME280;34170;54.364;18.582;2022-10-26T02:42:49;100256.03;;;10.95;100.00
48364;BME280;34170;54.364;18.582;2022-10-26T02:45:21;100261.06;;;11.08;100.00
48364;BME280;34170;54.364;18.582;2022-10-26T02:47:50;100254.75;;;10.99;100.00
48364;BME280;34170;54.364;18.582;2022-10-26T02:50:23;100264.78;;;11.07;100.00
48364;BME280;34170;54.364;18.582;2022-10-26T02:55:45;100264.13;;;10.95;100.00
48364;BME280;34170;54.364;18.582;2022-10-26T02:58:38;100263.00;;;10.88;100.00
48364;BME280;34170;54.364;18.582;2022-10-26T03:01:07;100259.66;;;10.76;100.00
48364;BME280;34170;54.364;18.582;2022-10-26T03:03:34;100266.44;;;10.80;100.00
48364;BME280;34170;54.364;18.582;2022-10-26T03:06:02;100273.00;;;10.68;100.00
48364;BME280;34170;54.364;18.582;2022-10-26T03:08:29;100260.94;;;10.72;100.00
48364;BME280;34170;54.364;18.582;2022-10-26T03:10:57;100255.06;;;10.59;100.00
48364;BME280;34170;54.364;18.582;2022-10-26T03:13:24;100266.78;;;10.58;100.00
48364;BME280;34170;54.364;18.582;2022-10-26T03:15:54;100255.22;;;10.47;100.00
48364;BME280;34170;54.364;18.582;2022-10-26T03:18:22;100249.41;;;10.42;100.00
48364;BME280;34170;54.364;18.582;2022-10-26T03:20:50;100256.69;;;10.32;100.00
48364;BME280;34170;54.364;18.582;2022-10-26T03:23:17;100250.72;;;10.38;100.00
48364;BME280;34170;54.364;18.582;2022-10-26T03:25:44;100261.47;;;10.28;100.00
48364;BME280;34170;54.364;18.582;2022-10-26T03:28:12;100258.78;;;10.38;100.00
48364;BME280;34170;54.364;18.582;2022-10-26T03:30:39;100264.84;;;10.40;100.00
48364;BME280;34170;54.364;18.582;2022-10-26T03:33:07;100272.22;;;10.28;100.00
48364;BME280;34170;54.364;18.582;2022-10-26T03:35:34;100265.97;;;10.28;100.00
48364;BME280;34170;54.364;18.582;2022-10-26T03:38:01;100264.84;;;10.21;100.00
48364;BME280;34170;54.364;18.582;2022-10-26T03:40:29;100258.66;;;10.10;100.00
48364;BME280;34170;54.364;18.582;2022-10-26T03:42:56;100268.41;;;10.31;100.00
48364;BME280;34170;54.364;18.582;2022-10-26T03:45:23;100261.19;;;10.22;100.00
48364;BME280;34170;54.364;18.582;2022-10-26T03:47:51;100269.53;;;10.09;100.00
48364;BME280;34170;54.364;18.582;2022-10-26T03:50:20;100264.88;;;10.01;100.00
48364;BME280;34170;54.364;18.582;2022-10-26T03:52:48;100270.53;;;9.98;100.00
48364;BME280;34170;54.364;18.582;2022-10-26T03:55:16;100283.84;;;10.00;100.00
48364;BME280;34170;54.364;18.582;2022-10-26T03:57:44;100284.94;;;9.97;100.00
48364;BME280;34170;54.364;18.582;2022-10-26T04:00:13;100288.22;;;10.10;100.00
48364;BME280;34170;54.364;18.582;2022-10-26T04:02:44;100284.69;;;10.39;100.00
48364;BME280;34170;54.364;18.582;2022-10-26T04:05:14;100292.41;;;10.23;100.00
48364;BME280;34170;54.364;18.582;2022-10-26T04:07:43;100290.63;;;10.33;100.00
48364;BME280;34170;54.364;18.582;2022-10-26T04:10:10;100281.44;;;10.36;100.00
48364;BME280;34170;54.364;18.582;2022-10-26T04:12:38;100283.22;;;10.16;100.00
48364;BME280;34170;54.364;18.582;2022-10-26T04:15:05;100288.06;;;10.02;100.00
48364;BME280;34170;54.364;18.582;2022-10-26T04:17:33;100280.56;;;10.16;100.00
48364;BME280;34170;54.364;18.582;2022-10-26T04:20:01;100288.22;;;10.10;100.00
48364;BME280;34170;54.364;18.582;2022-10-26T04:22:28;100292.88;;;9.99;100.00
48364;BME280;34170;54.364;18.582;2022-10-26T04:24:55;100299.22;;;10.17;100.00
48364;BME280;34170;54.364;18.582;2022-10-26T04:27:23;100299.38;;;10.35;100.00
48364;BME280;34170;54.364;18.582;2022-10-26T04:29:50;100303.34;;;10.31;100.00
48364;BME280;34170;54.364;18.582;2022-10-26T04:32:17;100306.19;;;10.39;100.00
48364;BME280;34170;54.364;18.582;2022-10-26T04:34:44;100311.53;;;10.59;100.00
48364;BME280;34170;54.364;18.582;2022-10-26T04:37:12;100309.50;;;10.71;100.00
48364;BME280;34170;54.364;18.582;2022-10-26T04:39:39;100314.31;;;10.67;100.00
48364;BME280;34170;54.364;18.582;2022-10-26T04:42:06;100311.06;;;10.73;100.00
48364;BME280;34170;54.364;18.582;2022-10-26T04:44:34;100314.56;;;10.83;100.00
48364;BME280;34170;54.364;18.582;2022-10-26T04:47:01;100311.44;;;10.88;100.00
48364;BME280;34170;54.364;18.582;2022-10-26T04:49:28;100305.50;;;10.84;100.00
48364;BME280;34170;54.364;18.582;2022-10-26T04:51:55;100312.56;;;10.95;100.00
48364;BME280;34170;54.364;18.582;2022-10-26T04:54:23;100323.03;;;10.88;100.00
48364;BME280;34170;54.364;18.582;2022-10-26T04:56:50;100315.03;;;11.06;100.00
48364;BME280;34170;54.364;18.582;2022-10-26T04:59:17;100319.53;;;11.16;100.00
48364;BME280;34170;54.364;18.582;2022-10-26T05:01:45;100315.66;;;11.00;100.00
48364;BME280;34170;54.364;18.582;2022-10-26T05:04:12;100322.75;;;10.92;100.00
48364;BME280;34170;54.364;18.582;2022-10-26T05:06:40;100317.66;;;10.88;100.00
48364;BME280;34170;54.364;18.582;2022-10-26T05:09:07;100317.94;;;10.85;100.00
48364;BME280;34170;54.364;18.582;2022-10-26T05:11:34;100309.94;;;11.03;100.00
48364;BME280;34170;54.364;18.582;2022-10-26T05:14:02;100305.16;;;11.07;100.00
48364;BME280;34170;54.364;18.582;2022-10-26T05:16:29;100306.94;;;11.16;100.00
48364;BME280;34170;54.364;18.582;2022-10-26T05:18:56;100307.97;;;11.05;100.00
48364;BME280;34170;54.364;18.582;2022-10-26T05:21:24;100296.00;;;10.90;100.00
48364;BME280;34170;54.364;18.582;2022-10-26T05:23:51;100300.53;;;10.90;100.00
48364;BME280;34170;54.364;18.582;2022-10-26T05:26:22;100297.44;;;10.84;100.00
48364;BME280;34170;54.364;18.582;2022-10-26T05:28:50;100300.75;;;10.68;100.00
48364;BME280;34170;54.364;18.582;2022-10-26T05:31:18;100298.66;;;10.53;100.00
48364;BME280;34170;54.364;18.582;2022-10-26T05:33:50;100305.72;;;10.54;100.00
48364;BME280;34170;54.364;18.582;2022-10-26T05:36:18;100309.69;;;10.49;100.00
48364;BME280;34170;54.364;18.582;2022-10-26T05:38:46;100310.97;;;10.45;100.00
48364;BME280;34170;54.364;18.582;2022-10-26T05:41:13;100308.44;;;10.44;100.00
48364;BME280;34170;54.364;18.582;2022-10-26T05:43:40;100314.22;;;10.49;100.00
48364;BME280;34170;54.364;18.582;2022-10-26T05:46:08;100317.03;;;10.57;100.00
48364;BME280;34170;54.364;18.582;2022-10-26T05:48:35;100311.94;;;10.44;100.00
48364;BME280;34170;54.364;18.582;2022-10-26T05:51:02;100319.31;;;10.42;100.00
48364;BME280;34170;54.364;18.582;2022-10-26T05:53:30;100322.16;;;10.41;100.00
48364;BME280;34170;54.364;18.582;2022-10-26T05:55:57;100334.16;;;10.27;100.00
48364;BME280;34170;54.364;18.582;2022-10-26T05:58:25;100339.16;;;10.41;100.00
48364;BME280;34170;54.364;18.582;2022-10-26T06:01:19;100338.00;;;10.54;100.00
48364;BME280;34170;54.364;18.582;2022-10-26T06:06:43;100348.03;;;10.61;100.00
48364;BME280;34170;54.364;18.582;2022-10-26T06:09:11;100341.09;;;10.68;100.00
48364;BME280;34170;54.364;18.582;2022-10-26T06:11:39;100348.00;;;10.81;100.00
48364;BME280;34170;54.364;18.582;2022-10-26T06:14:07;100350.31;;;11.03;100.00
48364;BME280;34170;54.364;18.582;2022-10-26T06:19:55;100352.00;;;11.42;100.00
48364;BME280;34170;54.364;18.582;2022-10-26T06:22:54;100362.03;;;11.50;100.00
48364;BME280;34170;54.364;18.582;2022-10-26T06:25:52;100373.34;;;12.27;100.00
48364;BME280;34170;54.364;18.582;2022-10-26T06:28:32;100367.09;;;13.41;100.00
48364;BME280;34170;54.364;18.582;2022-10-26T06:31:02;100375.81;;;14.36;100.00
48364;BME280;34170;54.364;18.582;2022-10-26T06:33:30;100388.53;;;14.68;100.00
48364;BME280;34170;54.364;18.582;2022-10-26T06:36:23;100385.41;;;15.69;100.00
48364;BME280;34170;54.364;18.582;2022-10-26T06:39:03;100395.13;;;16.26;97.55
48364;BME280;34170;54.364;18.582;2022-10-26T06:41:33;100401.72;;;17.60;88.11
48364;BME280;34170;54.364;18.582;2022-10-26T06:44:03;100404.03;;;18.29;83.35
48364;BME280;34170;54.364;18.582;2022-10-26T06:46:40;100405.81;;;18.37;78.36
48364;BME280;34170;54.364;18.582;2022-10-26T06:49:14;100409.19;;;18.61;77.17
48364;BME280;34170;54.364;18.582;2022-10-26T06:54:50;100421.41;;;20.40;66.32
48364;BME280;34170;54.364;18.582;2022-10-26T06:57:20;100418.31;;;21.29;61.78
48364;BME280;34170;54.364;18.582;2022-10-26T06:59:56;100419.19;;;21.03;59.30
48364;BME280;34170;54.364;18.582;2022-10-26T07:02:26;100427.19;;;20.98;58.69
48364;BME280;34170;54.364;18.582;2022-10-26T07:04:54;100414.53;;;21.24;56.33
48364;BME280;34170;54.364;18.582;2022-10-26T07:07:26;100430.44;;;21.80;56.49
48364;BME280;34170;54.364;18.582;2022-10-26T07:09:55;100434.94;;;21.28;55.74
48364;BME280;34170;54.364;18.582;2022-10-26T07:12:22;100431.94;;;20.43;59.21
48364;BME280;34170;54.364;18.582;2022-10-26T07:14:50;100436.41;;;21.57;55.12
48364;BME280;34170;54.364;18.582;2022-10-26T07:17:17;100430.94;;;21.30;54.43
48364;BME280;34170;54.364;18.582;2022-10-26T07:19:44;100430.09;;;21.30;54.57
48364;BME280;34170;54.364;18.582;2022-10-26T07:22:11;100436.50;;;22.41;51.93
48364;BME280;34170;54.364;18.582;2022-10-26T07:24:39;100430.63;;;23.26;49.36
48364;BME280;34170;54.364;18.582;2022-10-26T07:27:06;100431.31;;;24.02;46.65
48364;BME280;34170;54.364;18.582;2022-10-26T07:29:34;100440.69;;;23.94;46.74
48364;BME280;34170;54.364;18.582;2022-10-26T07:32:01;100438.19;;;23.49;47.10
48364;BME280;34170;54.364;18.582;2022-10-26T07:34:29;100446.25;;;22.94;48.44
48364;BME280;34170;54.364;18.582;2022-10-26T07:36:58;100440.38;;;22.90;48.68
48364;BME280;34170;54.364;18.582;2022-10-26T07:39:26;100437.19;;;23.25;48.36
48364;BME280;34170;54.364;18.582;2022-10-26T07:41:53;100448.75;;;23.89;46.82
48364;BME280;34170;54.364;18.582;2022-10-26T07:44:21;100445.59;;;24.83;43.81
48364;BME280;34170;54.364;18.582;2022-10-26T07:46:48;100446.25;;;25.21;43.04
48364;BME280;34170;54.364;18.582;2022-10-26T07:49:15;100455.91;;;24.27;43.91
48364;BME280;34170;54.364;18.582;2022-10-26T07:51:45;100457.75;;;25.06;42.67
48364;BME280;34170;54.364;18.582;2022-10-26T07:54:13;100453.06;;;24.34;44.57
48364;BME280;34170;54.364;18.582;2022-10-26T07:56:40;100466.28;;;25.40;42.30
48364;BME280;34170;54.364;18.582;2022-10-26T07:59:10;100470.22;;;23.81;44.20
48364;BME280;34170;54.364;18.582;2022-10-26T08:01:38;100455.47;;;24.61;43.17
48364;BME280;34170;54.364;18.582;2022-10-26T08:04:05;100463.75;;;25.26;41.69
48364;BME280;34170;54.364;18.582;2022-10-26T08:06:32;100474.91;;;24.29;43.86
48364;BME280;34170;54.364;18.582;2022-10-26T08:09:00;100475.97;;;24.28;43.81
48364;BME280;34170;54.364;18.582;2022-10-26T08:11:27;100472.84;;;24.73;43.42
48364;BME280;34170;54.364;18.582;2022-10-26T08:13:55;100480.50;;;25.25;41.95
48364;BME280;34170;54.364;18.582;2022-10-26T08:16:22;100485.66;;;25.57;41.85
48364;BME280;34170;54.364;18.582;2022-10-26T08:18:50;100486.25;;;25.94;39.98
48364;BME280;34170;54.364;18.582;2022-10-26T08:21:17;100469.03;;;23.26;45.68
48364;BME280;34170;54.364;18.582;2022-10-26T08:23:56;100486.03;;;25.60;42.06
48364;BME280;34170;54.364;18.582;2022-10-26T08:26:23;100478.44;;;24.17;44.01
48364;BME280;34170;54.364;18.582;2022-10-26T08:28:51;100475.50;;;22.75;46.79
48364;BME280;34170;54.364;18.582;2022-10-26T08:31:18;100479.34;;;21.17;52.51
48364;BME280;34170;54.364;18.582;2022-10-26T08:33:45;100475.81;;;22.08;50.56
48364;BME280;34170;54.364;18.582;2022-10-26T08:36:21;100489.47;;;22.21;50.33
48364;BME280;34170;54.364;18.582;2022-10-26T08:38:49;100478.53;;;20.34;55.50
48364;BME280;34170;54.364;18.582;2022-10-26T08:41:42;100482.34;;;19.07;62.54
48364;BME280;34170;54.364;18.582;2022-10-26T08:47:15;100477.56;;;17.40;71.83
48364;BME280;34170;54.364;18.582;2022-10-26T08:49:59;100480.59;;;17.22;74.04
48364;BME280;34170;54.364;18.582;2022-10-26T08:52:50;100477.06;;;16.99;75.65
48364;BME280;34170;54.364;18.582;2022-10-26T08:55:20;100486.59;;;17.18;76.21
48364;BME280;34170;54.364;18.582;2022-10-26T08:57:51;100488.47;;;17.17;76.14
48364;BME280;34170;54.364;18.582;2022-10-26T09:00:21;100495.25;;;17.36;73.89
48364;BME280;34170;54.364;18.582;2022-10-26T09:02:54;100485.25;;;17.66;73.30
48364;BME280;34170;54.364;18.582;2022-10-26T09:05:22;100495.59;;;17.71;73.22
48364;BME280;34170;54.364;18.582;2022-10-26T09:08:18;100488.56;;;18.79;67.48
48364;BME280;34170;54.364;18.582;2022-10-26T09:19:25;100491.66;;;18.55;66.73
48364;BME280;34170;54.364;18.582;2022-10-26T09:22:17;100513.97;;;18.28;66.19
48364;BME280;34170;54.364;18.582;2022-10-26T09:24:59;100499.56;;;18.50;66.06
48364;BME280;34170;54.364;18.582;2022-10-26T09:27:40;100509.63;;;18.85;64.48
48364;BME280;34170;54.364;18.582;2022-10-26T09:30:15;100505.81;;;19.30;61.03
48364;BME280;34170;54.364;18.582;2022-10-26T09:33:11;100517.81;;;18.34;65.91
48364;BME280;34170;54.364;18.582;2022-10-26T09:35:45;100509.06;;;19.18;61.73
48364;BME280;34170;54.364;18.582;2022-10-26T09:38:34;100518.09;;;18.39;63.77
48364;BME280;34170;54.364;18.582;2022-10-26T09:41:04;100512.16;;;17.61;67.75
48364;BME280;34170;54.364;18.582;2022-10-26T09:43:45;100519.97;;;16.80;71.85
48364;BME280;34170;54.364;18.582;2022-10-26T09:46:27;100523.94;;;16.07;77.35
48364;BME280;34170;54.364;18.582;2022-10-26T09:49:00;100524.69;;;16.24;77.27
48364;BME280;34170;54.364;18.582;2022-10-26T09:51:29;100508.53;;;16.93;72.83
48364;BME280;34170;54.364;18.582;2022-10-26T09:53:56;100523.19;;;18.13;66.42
48364;BME280;34170;54.364;18.582;2022-10-26T09:56:25;100521.28;;;18.13;65.18
48364;BME280;34170;54.364;18.582;2022-10-26T09:59:01;100528.94;;;18.91;61.51
48364;BME280;34170;54.364;18.582;2022-10-26T10:01:33;100533.41;;;19.70;57.90
48364;BME280;34170;54.364;18.582;2022-10-26T10:06:39;100531.13;;;18.44;62.72
48364;BME280;34170;54.364;18.582;2022-10-26T10:11:50;100521.47;;;17.29;68.16
48364;BME280;34170;54.364;18.582;2022-10-26T10:14:23;100523.69;;;16.79;70.38
48364;BME280;34170;54.364;18.582;2022-10-26T10:16:54;100535.97;;;17.06;71.79
48364;BME280;34170;54.364;18.582;2022-10-26T10:19:34;100533.38;;;18.77;63.58
48364;BME280;34170;54.364;18.582;2022-10-26T10:22:08;100533.97;;;20.77;56.12
48364;BME280;34170;54.364;18.582;2022-10-26T10:24:42;100547.41;;;20.78;53.75
48364;BME280;34170;54.364;18.582;2022-10-26T10:27:18;100537.59;;;20.35;56.75
48364;BME280;34170;54.364;18.582;2022-10-26T10:29:48;100530.41;;;19.36;58.98
48364;BME280;34170;54.364;18.582;2022-10-26T10:32:21;100543.13;;;18.50;62.57
48364;BME280;34170;54.364;18.582;2022-10-26T10:34:51;100550.34;;;17.83;65.82
48364;BME280;34170;54.364;18.582;2022-10-26T10:37:28;100539.34;;;17.08;69.94
48364;BME280;34170;54.364;18.582;2022-10-26T10:39:58;100538.78;;;16.58;73.41
48364;BME280;34170;54.364;18.582;2022-10-26T10:42:31;100544.78;;;16.06;77.15
48364;BME280;34170;54.364;18.582;2022-10-26T10:45:00;100546.53;;;15.91;78.33
48364;BME280;34170;54.364;18.582;2022-10-26T10:47:31;100541.88;;;16.87;74.62
48364;BME280;34170;54.364;18.582;2022-10-26T10:50:17;100548.66;;;18.93;64.52
48364;BME280;34170;54.364;18.582;2022-10-26T10:52:46;100554.41;;;18.46;63.65
48364;BME280;34170;54.364;18.582;2022-10-26T11:00:23;100553.81;;;17.01;72.19
48364;BME280;34170;54.364;18.582;2022-10-26T11:09:01;100554.97;;;16.75;74.06
48364;BME280;34170;54.364;18.582;2022-10-26T11:11:35;100555.47;;;16.47;74.67
48364;BME280;34170;54.364;18.582;2022-10-26T11:14:17;100569.22;;;16.06;77.82
48364;BME280;34170;54.364;18.582;2022-10-26T11:16:51;100566.72;;;15.88;79.58
48364;BME280;34170;54.364;18.582;2022-10-26T11:19:25;100558.03;;;15.93;78.37
48364;BME280;34170;54.364;18.582;2022-10-26T11:21:55;100570.25;;;15.89;77.67
48364;BME280;34170;54.364;18.582;2022-10-26T11:24:42;100573.50;;;15.51;79.91
48364;BME280;34170;54.364;18.582;2022-10-26T11:27:22;100578.19;;;16.07;76.34
48364;BME280;34170;54.364;18.582;2022-10-26T11:30:05;100575.69;;;15.89;76.58
48364;BME280;34170;54.364;18.582;2022-10-26T11:32:41;100581.47;;;15.77;77.41
48364;BME280;34170;54.364;18.582;2022-10-26T11:35:29;100589.91;;;15.82;78.05
48364;BME280;34170;54.364;18.582;2022-10-26T11:41:06;100588.22;;;15.49;79.38
48364;BME280;34170;54.364;18.582;2022-10-26T11:44:00;100591.31;;;15.46;81.24
48364;BME280;34170;54.364;18.582;2022-10-26T11:46:36;100587.72;;;15.29;83.00
48364;BME280;34170;54.364;18.582;2022-10-26T11:49:17;100585.34;;;15.09;85.04
48364;BME280;34170;54.364;18.582;2022-10-26T11:52:01;100590.63;;;15.43;83.38
48364;BME280;34170;54.364;18.582;2022-10-26T11:54:36;100584.53;;;15.58;83.31
48364;BME280;34170;54.364;18.582;2022-10-26T11:57:06;100593.84;;;15.39;84.75
48364;BME280;34170;54.364;18.582;2022-10-26T11:59:42;100596.38;;;15.40;83.57
48364;BME280;34170;54.364;18.582;2022-10-26T12:02:21;100595.66;;;15.22;85.71
48364;BME280;34170;54.364;18.582;2022-10-26T12:05:02;100587.19;;;15.00;87.52
48364;BME280;34170;54.364;18.582;2022-10-26T12:07:34;100600.63;;;14.59;91.19
48364;BME280;34170;54.364;18.582;2022-10-26T12:10:05;100595.28;;;14.84;89.72
48364;BME280;34170;54.364;18.582;2022-10-26T12:12:43;100603.09;;;15.03;87.85
48364;BME280;34170;54.364;18.582;2022-10-26T12:15:20;100603.47;;;15.25;86.03
48364;BME280;34170;54.364;18.582;2022-10-26T12:21:16;100598.41;;;15.14;83.78
48364;BME280;34170;54.364;18.582;2022-10-26T12:23:57;100608.06;;;15.24;84.15
48364;BME280;34170;54.364;18.582;2022-10-26T12:33:59;100612.41;;;14.16;89.79
48364;BME280;34170;54.364;18.582;2022-10-26T12:47:03;100611.00;;;14.72;87.76
48364;BME280;34170;54.364;18.582;2022-10-26T12:52:46;100609.75;;;14.58;86.96
48364;BME280;34170;54.364;18.582;2022-10-26T13:08:55;100619.34;;;14.18;90.17
48364;BME280;34170;54.364;18.582;2022-10-26T13:11:30;100616.16;;;13.97;92.43
48364;BME280;34170;54.364;18.582;2022-10-26T13:14:04;100627.13;;;14.13;91.21
48364;BME280;34170;54.364;18.582;2022-10-26T13:16:33;100614.47;;;13.69;93.99
48364;BME280;34170;54.364;18.582;2022-10-26T13:19:01;100624.63;;;13.49;97.26
48364;BME280;34170;54.364;18.582;2022-10-26T13:21:28;100630.88;;;13.50;98.31
48364;BME280;34170;54.364;18.582;2022-10-26T13:23:57;100635.69;;;13.38;99.21
48364;BME280;34170;54.364;18.582;2022-10-26T13:32:39;100633.56;;;13.50;99.01
48364;BME280;34170;54.364;18.582;2022-10-26T13:35:11;100630.81;;;13.60;99.19
48364;BME280;34170;54.364;18.582;2022-10-26T13:37:50;100636.59;;;13.65;98.27
48364;BME280;34170;54.364;18.582;2022-10-26T13:40:22;100628.47;;;13.65;97.65
48364;BME280;34170;54.364;18.582;2022-10-26T13:42:56;100631.09;;;13.57;98.93
48364;BME280;34170;54.364;18.582;2022-10-26T13:45:27;100634.94;;;13.72;97.53
48364;BME280;34170;54.364;18.582;2022-10-26T13:48:04;100639.09;;;13.66;96.47
48364;BME280;34170;54.364;18.582;2022-10-26T13:50:46;100640.84;;;13.49;98.17
48364;BME280;34170;54.364;18.582;2022-10-26T13:56:30;100635.03;;;13.62;97.26
48364;BME280;34170;54.364;18.582;2022-10-26T13:59:04;100645.91;;;13.70;96.91
48364;BME280;34170;54.364;18.582;2022-10-26T14:01:32;100640.28;;;13.64;97.79
48364;BME280;34170;54.364;18.582;2022-10-26T14:04:26;100648.50;;;13.80;97.22
48364;BME280;34170;54.364;18.582;2022-10-26T14:06:54;100642.88;;;13.91;95.64
48364;BME280;34170;54.364;18.582;2022-10-26T14:09:21;100650.03;;;14.01;95.57
48364;BME280;34170;54.364;18.582;2022-10-26T14:11:53;100643.97;;;14.07;94.65
48364;BME280;34170;54.364;18.582;2022-10-26T14:14:28;100648.63;;;13.97;95.70
48364;BME280;34170;54.364;18.582;2022-10-26T14:16:57;100645.81;;;13.80;97.58
48364;BME280;34170;54.364;18.582;2022-10-26T14:19:28;100647.78;;;13.70;98.15
48364;BME280;34170;54.364;18.582;2022-10-26T14:21:56;100655.25;;;13.76;97.97
48364;BME280;34170;54.364;18.582;2022-10-26T14:24:33;100646.97;;;13.78;98.18
48364;BME280;34170;54.364;18.582;2022-10-26T14:27:16;100644.69;;;13.65;99.04
48364;BME280;34170;54.364;18.582;2022-10-26T14:29:44;100662.19;;;13.79;100.00
48364;BME280;34170;54.364;18.582;2022-10-26T14:32:21;100654.78;;;13.63;100.00
48364;BME280;34170;54.364;18.582;2022-10-26T14:34:49;100655.69;;;13.71;99.98
48364;BME280;34170;54.364;18.582;2022-10-26T14:37:25;100652.38;;;13.78;99.96
48364;BME280;34170;54.364;18.582;2022-10-26T14:39:56;100656.53;;;13.90;99.27
48364;BME280;34170;54.364;18.582;2022-10-26T14:42:33;100650.25;;;13.89;99.45
48364;BME280;34170;54.364;18.582;2022-10-26T14:45:01;100662.09;;;13.88;98.77
48364;BME280;34170;54.364;18.582;2022-10-26T14:47:34;100652.78;;;13.83;99.33
48364;BME280;34170;54.364;18.582;2022-10-26T14:50:02;100655.28;;;13.58;100.00